Time;durP1;ratioP1;P1;durP2;ratioP2;P2;SDS_P1;SDS_P2;PMS_P1;PMS_P2;Temp;Humidity;BMP_temperature;BMP_pressure;BME280_temperature;BME280_humidity;BME280_pressure;Samples;Min_cycle;Max_cycle;Signal;HPM_P1;HPM_P2
2022/10/02 00:00:53;;;;;;;;;;;;;;;22.80;66.66;100348.38;7408487;19;1850;-69
2022/10/02 00:03:24;;;;;;;;;;;;;;;22.82;66.18;100359.84;7407627;19;1222;-66
2022/10/02 00:05:54;;;;;;;;;;;;;;;22.86;66.66;100365.72;7408819;19;1702;-68
2022/10/02 00:08:25;;;;;;;;;;;;;;;22.83;66.96;100361.53;7405700;19;1876;-69
2022/10/02 00:10:56;;;;;;;;;;;;;;;22.77;67.25;100332.56;7407189;19;1780;-68
2022/10/02 00:13:30;;;;;;;;;;;;;;;22.79;67.34;100307.09;7408255;19;1488;-69
2022/10/02 00:16:00;;;;;;;;;;;;;;;22.79;67.20;100308.97;7407707;19;1239;-69
2022/10/02 00:18:31;;;;;;;;;;;;;;;22.77;66.69;100286.72;7408368;19;1254;-69
2022/10/02 00:21:05;;;;;;;;;;;;;;;22.77;66.79;100286.72;7407554;19;1864;-69
2022/10/02 00:23:36;;;;;;;;;;;;;;;22.77;66.84;100300.19;7408760;19;1231;-68
2022/10/02 00:26:07;;;;;;;;;;;;;;;22.79;66.95;100303.56;7407059;19;1499;-68
2022/10/02 00:28:46;;;;;;;;;;;;;;;22.75;66.70;100300.38;7405827;19;1429;-69
2022/10/02 00:31:22;;;;;;;;;;;;;;;22.78;66.75;100285.69;7407823;19;1402;-68
2022/10/02 00:33:58;;;;;;;;;;;;;;;22.77;66.83;100297.50;7407756;19;1246;-69
2022/10/02 00:36:33;;;;;;;;;;;;;;;22.81;66.67;100304.25;7407031;19;1479;-69
2022/10/02 00:39:03;;;;;;;;;;;;;;;22.77;66.68;100284.03;7408074;19;1326;-69
2022/10/02 00:41:49;;;;;;;;;;;;;;;22.79;67.10;100306.25;7405922;19;1843;-59
2022/10/02 00:44:25;;;;;;;;;;;;;;;22.76;66.74;100307.47;7406073;19;1562;-59
2022/10/02 00:46:57;;;;;;;;;;;;;;;22.77;66.76;100292.13;7405595;19;1313;-58
2022/10/02 00:49:32;;;;;;;;;;;;;;;22.76;66.67;100296.69;7406822;19;1483;-59
2022/10/02 00:52:06;;;;;;;;;;;;;;;22.75;67.08;100275.28;7405873;19;1488;-59
2022/10/02 00:54:49;;;;;;;;;;;;;;;22.75;66.69;100267.19;7405825;19;1294;-59
2022/10/02 00:57:23;;;;;;;;;;;;;;;22.73;66.72;100258.44;7405759;19;1404;-58
2022/10/02 01:00:00;;;;;;;;;;;;;;;22.75;66.76;100257.25;7405967;19;1484;-58
2022/10/02 01:02:45;;;;;;;;;;;;;;;22.76;66.83;100247.28;7404282;19;1846;-58
2022/10/02 01:05:14;;;;;;;;;;;;;;;22.74;67.12;100250.19;7406079;19;1338;-59
2022/10/02 01:07:44;;;;;;;;;;;;;;;22.72;66.71;100249.50;7405130;19;1242;-59
2022/10/02 01:10:13;;;;;;;;;;;;;;;22.73;67.04;100253.03;7403124;19;1353;-59
2022/10/02 01:12:42;;;;;;;;;;;;;;;22.73;66.91;100242.25;7406213;19;1333;-59
2022/10/02 01:15:18;;;;;;;;;;;;;;;22.74;67.00;100225.06;7404952;19;1432;-59
2022/10/02 01:17:48;;;;;;;;;;;;;;;22.72;66.64;100221.69;7405253;19;1624;-59
2022/10/02 01:20:18;;;;;;;;;;;;;;;22.73;66.77;100220.69;7405711;19;1373;-59
2022/10/02 01:22:50;;;;;;;;;;;;;;;22.74;66.87;100211.59;7403879;19;1850;-59
2022/10/02 01:25:21;;;;;;;;;;;;;;;22.73;66.73;100193.75;7404949;19;1338;-59
2022/10/02 01:27:50;;;;;;;;;;;;;;;22.72;66.65;100208.22;7405605;19;1313;-58
2022/10/02 01:30:20;;;;;;;;;;;;;;;22.74;66.55;100216.97;7405347;19;1285;-58
2022/10/02 01:32:50;;;;;;;;;;;;;;;22.75;66.86;100218.66;7405730;19;1741;-58
2022/10/02 01:35:19;;;;;;;;;;;;;;;22.70;66.81;100215.63;7405189;19;1490;-59
2022/10/02 01:37:48;;;;;;;;;;;;;;;22.71;66.61;100209.25;7404334;19;1537;-59
2022/10/02 01:40:28;;;;;;;;;;;;;;;22.70;66.67;100210.25;7403440;19;1781;-59
2022/10/02 01:42:57;;;;;;;;;;;;;;;22.71;66.86;100203.88;7403645;19;1849;-59
2022/10/02 01:45:30;;;;;;;;;;;;;;;22.70;66.58;100199.47;7405814;19;1484;-59
2022/10/02 01:48:03;;;;;;;;;;;;;;;22.70;66.94;100215.63;7404931;19;1286;-59
2022/10/02 01:50:34;;;;;;;;;;;;;;;22.69;66.81;100198.63;7405092;19;1690;-59
2022/10/02 01:53:05;;;;;;;;;;;;;;;22.72;66.86;100224.41;7404459;19;1781;-58
2022/10/02 01:55:40;;;;;;;;;;;;;;;22.68;66.68;100217.66;7403288;19;1509;-58
2022/10/02 01:58:18;;;;;;;;;;;;;;;22.66;66.62;100255.59;7403735;19;1382;-59
2022/10/02 02:00:53;;;;;;;;;;;;;;;22.68;66.62;100250.00;7401058;19;1406;-59
2022/10/02 02:03:24;;;;;;;;;;;;;;;22.69;66.82;100263.31;7401240;19;1900;-58
2022/10/02 02:05:54;;;;;;;;;;;;;;;22.71;66.56;100249.69;7403961;19;1764;-58
2022/10/02 02:08:28;;;;;;;;;;;;;;;22.71;66.56;100260.47;7403354;19;1488;-59
2022/10/02 02:11:03;;;;;;;;;;;;;;;22.67;66.56;100251.03;7403892;19;1436;-59
2022/10/02 02:13:34;;;;;;;;;;;;;;;22.68;66.57;100260.78;7404441;19;1306;-59
2022/10/02 02:16:05;;;;;;;;;;;;;;;22.70;66.63;100250.69;7404141;19;1313;-59
2022/10/02 02:18:35;;;;;;;;;;;;;;;22.68;66.61;100240.09;7401820;19;1239;-59
2022/10/02 02:21:07;;;;;;;;;;;;;;;22.66;66.68;100236.72;7403544;19;1437;-59
2022/10/02 02:23:37;;;;;;;;;;;;;;;22.68;66.53;100225.75;7409481;19;1840;-58
2022/10/02 02:26:11;;;;;;;;;;;;;;;22.67;66.59;100242.97;7411248;19;1507;-59
2022/10/02 02:28:42;;;;;;;;;;;;;;;22.67;66.73;100242.97;7409915;19;1428;-58
2022/10/02 02:31:13;;;;;;;;;;;;;;;22.68;66.51;100244.63;7411209;19;1310;-58
2022/10/02 02:33:44;;;;;;;;;;;;;;;22.67;66.55;100235.69;7410748;19;1774;-59
2022/10/02 02:36:15;;;;;;;;;;;;;;;22.65;66.63;100245.81;7410160;19;1480;-59
2022/10/02 02:38:48;;;;;;;;;;;;;;;22.64;66.56;100239.59;7411391;19;1302;-59
2022/10/02 02:41:22;;;;;;;;;;;;;;;22.64;66.45;100236.03;7409396;19;1397;-59
2022/10/02 02:43:53;;;;;;;;;;;;;;;22.65;66.49;100235.03;7410069;19;1358;-59
2022/10/02 02:46:25;;;;;;;;;;;;;;;22.64;66.19;100230.66;7410706;19;1480;-59
2022/10/02 02:48:56;;;;;;;;;;;;;;;22.64;66.16;100238.72;7410727;19;1230;-59
2022/10/02 02:51:28;;;;;;;;;;;;;;;22.64;66.50;100244.97;7410569;19;1510;-59
2022/10/02 02:53:59;;;;;;;;;;;;;;;22.63;66.31;100235.19;7410597;19;1313;-58
2022/10/02 02:56:33;;;;;;;;;;;;;;;22.66;66.31;100235.88;7410989;19;1365;-59
2022/10/02 02:59:04;;;;;;;;;;;;;;;22.64;66.28;100244.97;7409972;19;1468;-59
2022/10/02 03:01:32;;;;;;;;;;;;;;;22.59;66.23;100247.34;7407080;19;1870;-59
2022/10/02 03:04:01;;;;;;;;;;;;;;;22.63;66.19;100258.63;7409970;19;1546;-58
2022/10/02 03:06:35;;;;;;;;;;;;;;;22.61;65.80;100255.25;7410160;19;1393;-59
2022/10/02 03:09:04;;;;;;;;;;;;;;;22.67;65.94;100259.97;7410119;19;1238;-59
2022/10/02 03:11:40;;;;;;;;;;;;;;;22.59;65.61;100241.94;7408598;19;1398;-59
2022/10/02 03:14:13;;;;;;;;;;;;;;;22.63;65.63;100264.84;7409506;19;1444;-58
2022/10/02 03:16:48;;;;;;;;;;;;;;;22.62;65.71;100257.78;7408876;19;1309;-58
2022/10/02 03:19:25;;;;;;;;;;;;;;;22.67;65.68;100253.75;7409175;19;1392;-58
2022/10/02 03:22:00;;;;;;;;;;;;;;;22.66;65.52;100268.22;7408641;19;1851;-59
2022/10/02 03:24:31;;;;;;;;;;;;;;;22.72;65.14;100278.31;7410499;19;1519;-59
2022/10/02 03:27:06;;;;;;;;;;;;;;;22.67;65.14;100276.13;7409098;19;1499;-57
2022/10/02 03:29:38;;;;;;;;;;;;;;;22.71;65.23;100290.94;7374281;19;12616;-61
2022/10/02 03:32:08;;;;;;;;;;;;;;;22.63;65.06;100275.63;7405413;19;1336;-61
2022/10/02 03:34:38;;;;;;;;;;;;;;;22.69;64.82;100267.88;7405270;19;1202;-61
2022/10/02 03:37:06;;;;;;;;;;;;;;;22.76;64.53;100277.81;7408550;19;1230;-58
2022/10/02 03:39:35;;;;;;;;;;;;;;;22.76;64.38;100290.41;7406502;19;1285;-58
2022/10/02 03:42:06;;;;;;;;;;;;;;;22.73;65.26;100301.56;7404860;19;1854;-58
2022/10/02 03:44:34;;;;;;;;;;;;;;;22.75;65.47;100300.38;7407453;19;1351;-59
2022/10/02 03:47:02;;;;;;;;;;;;;;;22.72;65.68;100283.69;7333093;19;13708;-59
2022/10/02 03:49:30;;;;;;;;;;;;;;;22.75;65.36;100289.59;7404123;19;1469;-59
2022/10/02 03:51:59;;;;;;;;;;;;;;;22.75;65.44;100296.84;7406212;19;1344;-59
2022/10/02 03:54:28;;;;;;;;;;;;;;;22.75;65.04;100305.75;7407875;19;1443;-59
2022/10/02 03:56:58;;;;;;;;;;;;;;;22.78;64.90;100309.97;7405989;19;1432;-59
2022/10/02 03:59:36;;;;;;;;;;;;;;;22.72;65.20;100313.34;7407221;19;1405;-59
2022/10/02 04:02:08;;;;;;;;;;;;;;;22.76;64.93;100317.38;7404645;19;1849;-59
2022/10/02 04:04:42;;;;;;;;;;;;;;;22.73;64.88;100323.97;7406603;19;1465;-58
2022/10/02 04:07:16;;;;;;;;;;;;;;;22.77;64.53;100327.16;7406817;19;1516;-59
2022/10/02 04:09:48;;;;;;;;;;;;;;;22.81;65.33;100331.19;7407612;19;1876;-59
2022/10/02 04:12:18;;;;;;;;;;;;;;;22.87;65.10;100333.19;7407079;19;1400;-59
2022/10/02 04:14:53;;;;;;;;;;;;;;;22.85;64.83;100329.84;7407078;19;1503;-58
2022/10/02 04:17:24;;;;;;;;;;;;;;;22.87;64.54;100330.50;7407597;19;1468;-59
2022/10/02 04:19:55;;;;;;;;;;;;;;;22.91;64.48;100336.41;7407562;19;1223;-58
2022/10/02 04:22:26;;;;;;;;;;;;;;;22.86;64.69;100328.84;7406156;19;1853;-60
2022/10/02 04:24:59;;;;;;;;;;;;;;;22.87;64.63;100335.06;7406976;19;1571;-59
2022/10/02 04:27:34;;;;;;;;;;;;;;;22.93;64.56;100340.59;7406741;19;1696;-59
2022/10/02 04:30:07;;;;;;;;;;;;;;;22.86;64.36;100339.63;7407352;19;1654;-59
2022/10/02 04:32:36;;;;;;;;;;;;;;;22.94;64.82;100331.50;7406925;19;1418;-59
2022/10/02 04:35:07;;;;;;;;;;;;;;;22.98;63.98;100340.09;7405502;19;1428;-59
2022/10/02 04:37:46;;;;;;;;;;;;;;;22.99;64.48;100339.91;7406846;19;1634;-58
2022/10/02 04:40:23;;;;;;;;;;;;;;;22.95;63.99;100338.56;7405336;19;1199;-58
2022/10/02 04:43:01;;;;;;;;;;;;;;;22.96;63.71;100320.53;7405827;19;1869;-59
2022/10/02 04:45:43;;;;;;;;;;;;;;;22.96;63.92;100331.31;7406791;19;1311;-58
2022/10/02 04:48:35;;;;;;;;;;;;;;;22.97;63.83;100331.16;7406076;19;1347;-58
2022/10/02 04:51:08;;;;;;;;;;;;;;;24.42;59.92;100347.81;7406158;19;1255;-59
2022/10/02 04:53:45;;;;;;;;;;;;;;;24.30;59.60;100332.25;7407491;19;1344;-59
2022/10/02 04:56:21;;;;;;;;;;;;;;;23.37;62.69;100348.25;7404419;19;1319;-57
2022/10/02 04:58:56;;;;;;;;;;;;;;;23.19;63.39;100361.13;7405232;19;1483;-57
2022/10/02 05:01:42;;;;;;;;;;;;;;;23.14;62.89;100363.50;7403263;19;1512;-57
2022/10/02 05:04:25;;;;;;;;;;;;;;;23.21;62.74;100375.28;7402766;19;1863;-58
2022/10/02 05:07:03;;;;;;;;;;;;;;;23.10;62.84;100372.94;7405799;19;1313;-57
2022/10/02 05:09:33;;;;;;;;;;;;;;;23.11;62.96;100374.66;7407015;19;1237;-57
2022/10/02 05:12:11;;;;;;;;;;;;;;;23.96;61.60;100374.84;7405245;19;1544;-58
2022/10/02 05:14:47;;;;;;;;;;;;;;;27.41;51.72;100370.47;7404477;19;1757;-56
2022/10/02 05:17:29;;;;;;;;;;;;;;;26.46;53.59;100378.13;7405074;19;1551;-57
2022/10/02 05:20:05;;;;;;;;;;;;;;;24.30;58.27;100378.19;7404245;19;1393;-59
2022/10/02 05:22:48;;;;;;;;;;;;;;;23.55;61.13;100398.47;7403479;19;1845;-58
2022/10/02 05:25:22;;;;;;;;;;;;;;;23.25;62.00;100402.78;7405381;19;1436;-57
2022/10/02 05:28:11;;;;;;;;;;;;;;;23.14;61.74;100417.44;7405809;19;1243;-58
2022/10/02 05:30:47;;;;;;;;;;;;;;;23.16;61.77;100404.66;7403152;19;1650;-57
2022/10/02 05:33:33;;;;;;;;;;;;;;;23.37;61.15;100412.19;7405869;19;1602;-57
2022/10/02 05:36:11;;;;;;;;;;;;;;;23.42;61.01;100407.94;7404937;19;1797;-58
2022/10/02 05:38:48;;;;;;;;;;;;;;;23.33;61.97;100408.97;7404672;19;1665;-59
2022/10/02 05:41:20;;;;;;;;;;;;;;;23.35;62.03;100416.91;7405430;19;1282;-59
2022/10/02 05:43:51;;;;;;;;;;;;;;;23.39;61.85;100410.16;7401973;19;1850;-59
2022/10/02 05:46:23;;;;;;;;;;;;;;;23.49;62.03;100426.16;7404849;19;1385;-57
2022/10/02 05:48:57;;;;;;;;;;;;;;;23.46;61.81;100418.38;7404676;19;1262;-59
2022/10/02 05:51:35;;;;;;;;;;;;;;;23.55;62.16;100404.69;7404679;19;1587;-58
2022/10/02 05:54:07;;;;;;;;;;;;;;;23.52;62.23;100409.63;7404467;19;1416;-58
2022/10/02 05:56:39;;;;;;;;;;;;;;;23.50;61.96;100409.78;7401741;19;1346;-61
2022/10/02 05:59:11;;;;;;;;;;;;;;;23.59;62.56;100413.28;7403977;19;1385;-59
2022/10/02 06:01:41;;;;;;;;;;;;;;;23.63;63.09;100414.63;7400821;19;1506;-60
2022/10/02 06:04:15;;;;;;;;;;;;;;;23.73;63.32;100422.50;7400788;19;1860;-60
2022/10/02 06:06:48;;;;;;;;;;;;;;;23.74;64.19;100419.66;7403756;19;1403;-61
2022/10/02 06:09:18;;;;;;;;;;;;;;;23.78;63.48;100421.00;7403711;19;1350;-60
2022/10/02 06:11:49;;;;;;;;;;;;;;;23.82;63.93;100429.59;7402833;19;1457;-66
2022/10/02 06:14:21;;;;;;;;;;;;;;;23.81;64.17;100427.91;7403304;19;1486;-60
2022/10/02 06:16:53;;;;;;;;;;;;;;;23.77;63.02;100430.09;7402565;19;1363;-60
2022/10/02 06:19:26;;;;;;;;;;;;;;;23.75;62.26;100444.78;7403715;19;1484;-61
2022/10/02 06:21:58;;;;;;;;;;;;;;;23.60;62.65;100444.69;7403321;19;1519;-67
2022/10/02 06:24:29;;;;;;;;;;;;;;;23.52;62.07;100423.94;7403311;19;1861;-62
2022/10/02 06:27:02;;;;;;;;;;;;;;;23.52;60.91;100445.53;7402674;19;1428;-62
2022/10/02 06:29:35;;;;;;;;;;;;;;;23.27;60.81;100433.94;7403379;19;1334;-62
2022/10/02 06:32:09;;;;;;;;;;;;;;;23.28;63.05;100451.84;7403079;19;1488;-62
2022/10/02 06:34:40;;;;;;;;;;;;;;;23.47;62.52;100447.06;7403499;19;1239;-62
2022/10/02 06:37:19;;;;;;;;;;;;;;;23.50;62.45;100454.84;7402859;19;1338;-63
2022/10/02 06:39:59;;;;;;;;;;;;;;;23.53;62.67;100459.88;7403825;19;1198;-63
2022/10/02 06:42:34;;;;;;;;;;;;;;;23.58;62.83;100425.13;7402620;19;1414;-63
2022/10/02 06:45:07;;;;;;;;;;;;;;;23.60;62.43;100444.69;7401364;19;1844;-62
2022/10/02 06:47:43;;;;;;;;;;;;;;;23.67;62.58;100444.81;7402675;19;1761;-65
2022/10/02 06:50:26;;;;;;;;;;;;;;;23.37;59.50;100440.00;7402695;19;1571;-59
2022/10/02 06:52:58;;;;;;;;;;;;;;;23.10;59.23;100435.84;7402669;19;1430;-64
2022/10/02 06:55:40;;;;;;;;;;;;;;;22.88;59.45;100450.84;7402948;19;1504;-63
2022/10/02 06:58:23;;;;;;;;;;;;;;;22.70;59.39;100450.13;7399925;19;1568;-63
2022/10/02 07:00:54;;;;;;;;;;;;;;;22.44;59.19;100446.59;7402000;19;1504;-63
2022/10/02 07:03:49;;;;;;;;;;;;;;;22.48;58.64;100441.69;7400760;19;1859;-63
2022/10/02 07:06:23;;;;;;;;;;;;;;;22.50;58.89;100450.47;7399695;19;1302;-63
2022/10/02 07:08:59;;;;;;;;;;;;;;;22.49;58.44;100459.56;7408894;19;1320;-63
2022/10/02 07:11:34;;;;;;;;;;;;;;;22.51;58.31;100460.22;7407824;19;1397;-63
2022/10/02 07:14:10;;;;;;;;;;;;;;;22.53;58.50;100449.28;7409003;19;1385;-64
2022/10/02 07:16:52;;;;;;;;;;;;;;;22.51;58.12;100446.75;7408812;19;1317;-64
2022/10/02 07:19:32;;;;;;;;;;;;;;;22.55;58.11;100458.88;7409304;19;1499;-63
2022/10/02 07:22:08;;;;;;;;;;;;;;;22.52;57.88;100480.78;7409317;19;1445;-63
2022/10/02 07:24:47;;;;;;;;;;;;;;;22.55;57.88;100466.13;7407430;19;1855;-63
2022/10/02 07:27:20;;;;;;;;;;;;;;;22.60;57.73;100480.81;7406798;19;1515;-63
2022/10/02 07:29:52;;;;;;;;;;;;;;;22.39;57.48;100499.28;7409064;19;1571;-63
2022/10/02 07:32:36;;;;;;;;;;;;;;;22.42;57.58;100488.16;7409744;19;1492;-63
2022/10/02 07:35:09;;;;;;;;;;;;;;;22.27;57.30;100500.59;7409056;19;1433;-63
2022/10/02 07:37:45;;;;;;;;;;;;;;;22.17;57.10;100496.16;7408189;19;1476;-63
2022/10/02 07:40:23;;;;;;;;;;;;;;;22.29;57.02;100493.19;7408770;19;1436;-63
2022/10/02 07:43:00;;;;;;;;;;;;;;;22.43;56.79;100503.34;7409427;19;1325;-63
2022/10/02 07:45:29;;;;;;;;;;;;;;;22.44;56.59;100508.56;7407296;19;1373;-63
2022/10/02 07:48:09;;;;;;;;;;;;;;;22.47;56.13;100512.78;7409511;19;1132;-63
2022/10/02 07:50:42;;;;;;;;;;;;;;;22.45;56.28;100504.00;7409731;19;1314;-63
2022/10/02 07:53:17;;;;;;;;;;;;;;;22.44;55.75;100508.56;7408362;19;1697;-64
2022/10/02 07:55:50;;;;;;;;;;;;;;;22.40;55.46;100515.28;7405322;19;1444;-65
2022/10/02 07:58:20;;;;;;;;;;;;;;;22.47;55.71;100520.84;7407306;19;1429;-65
2022/10/02 08:00:50;;;;;;;;;;;;;;;22.51;55.94;100521.38;7408471;19;1441;-64
2022/10/02 08:03:20;;;;;;;;;;;;;;;22.40;55.90;100519.81;7406010;19;1857;-63
2022/10/02 08:05:50;;;;;;;;;;;;;;;22.31;55.26;100526.19;7408327;19;1445;-64
2022/10/02 08:08:23;;;;;;;;;;;;;;;22.20;54.79;100528.16;7408250;19;1487;-64
2022/10/02 08:10:55;;;;;;;;;;;;;;;22.21;54.55;100520.91;7408330;19;1318;-64
2022/10/02 08:13:27;;;;;;;;;;;;;;;22.26;54.77;100547.38;7407777;19;1516;-63
2022/10/02 08:15:57;;;;;;;;;;;;;;;22.18;54.57;100535.56;7407870;19;1227;-63
2022/10/02 08:18:31;;;;;;;;;;;;;;;22.24;53.89;100540.31;7406271;19;1500;-63
2022/10/02 08:20:59;;;;;;;;;;;;;;;22.19;54.34;100561.47;7405088;19;1330;-62
2022/10/02 08:23:32;;;;;;;;;;;;;;;22.25;53.92;100551.94;7407261;19;1884;-63
2022/10/02 08:26:06;;;;;;;;;;;;;;;22.50;54.94;100543.91;7404898;19;1385;-63
2022/10/02 08:28:39;;;;;;;;;;;;;;;22.78;54.83;100563.34;7402535;19;1398;-63
2022/10/02 08:31:10;;;;;;;;;;;;;;;22.78;54.19;100563.34;7402953;19;1253;-62
2022/10/02 08:33:39;;;;;;;;;;;;;;;22.89;55.76;100560.34;7405809;19;1440;-63
2022/10/02 08:36:25;;;;;;;;;;;;;;;23.00;56.20;100548.41;7405761;19;1354;-63
2022/10/02 08:39:02;;;;;;;;;;;;;;;22.94;55.80;100551.75;7405903;19;1394;-63
2022/10/02 08:41:48;;;;;;;;;;;;;;;22.80;55.42;100556.81;7406382;19;1516;-63
2022/10/02 08:44:28;;;;;;;;;;;;;;;22.75;54.18;100552.94;7405681;19;1846;-63
2022/10/02 08:47:08;;;;;;;;;;;;;;;22.79;54.50;100554.28;7405024;19;1570;-63
2022/10/02 08:49:54;;;;;;;;;;;;;;;22.80;54.77;100562.22;7406131;19;1421;-62
2022/10/02 08:52:30;;;;;;;;;;;;;;;22.75;55.00;100579.88;7403417;19;1715;-63
2022/10/02 08:55:18;;;;;;;;;;;;;;;22.70;54.96;100560.66;7407563;19;1492;-62
2022/10/02 08:58:04;;;;;;;;;;;;;;;22.84;55.30;100565.41;7406446;19;1333;-62
2022/10/02 09:00:38;;;;;;;;;;;;;;;22.75;56.84;100572.63;7407291;19;1230;-62
2022/10/02 09:03:34;;;;;;;;;;;;;;;22.67;54.71;100556.44;7403538;19;1498;-61
2022/10/02 09:06:17;;;;;;;;;;;;;;;22.55;54.37;100561.28;7404234;19;1669;-61
2022/10/02 09:09:00;;;;;;;;;;;;;;;22.58;53.78;100576.28;7408174;19;967;-60
2022/10/02 09:11:59;;;;;;;;;;;;;;;22.54;53.16;100578.50;7405286;19;1583;-61
2022/10/02 09:14:48;;;;;;;;;;;;;;;22.50;53.16;100593.28;7406922;19;1547;-61
2022/10/02 09:17:36;;;;;;;;;;;;;;;22.49;52.97;100586.19;7404045;19;1582;-61
2022/10/02 09:20:20;;;;;;;;;;;;;;;22.59;53.18;100589.59;7405690;19;1498;-61
2022/10/02 09:23:10;;;;;;;;;;;;;;;22.49;53.08;100586.19;7406415;19;1691;-61
2022/10/02 09:25:39;;;;;;;;;;;;;;;22.46;53.49;100573.03;7401332;19;1842;-62
2022/10/02 09:28:22;;;;;;;;;;;;;;;22.70;53.36;100577.69;7406439;19;1043;-61
2022/10/02 09:31:13;;;;;;;;;;;;;;;22.63;53.36;100568.56;7402083;19;1571;-62
2022/10/02 09:33:59;;;;;;;;;;;;;;;22.59;53.05;100565.34;7405749;19;1775;-62
2022/10/02 09:36:44;;;;;;;;;;;;;;;22.63;52.81;100577.47;7405736;19;1302;-61
2022/10/02 09:39:39;;;;;;;;;;;;;;;22.48;52.86;100584.50;7403838;19;1402;-61
2022/10/02 09:42:23;;;;;;;;;;;;;;;22.51;51.96;100569.88;7402054;19;1510;-61
2022/10/02 09:45:12;;;;;;;;;;;;;;;22.64;53.97;100606.13;7403708;19;1865;-61
2022/10/02 09:48:00;;;;;;;;;;;;;;;22.83;55.05;100593.38;7401970;19;1515;-61
2022/10/02 09:50:42;;;;;;;;;;;;;;;22.64;52.24;100579.19;7405241;19;1248;-62
2022/10/02 09:53:26;;;;;;;;;;;;;;;22.59;52.10;100570.75;7410949;19;1677;-62
2022/10/02 09:56:21;;;;;;;;;;;;;;;22.62;51.68;100575.81;7408813;19;1404;-62
2022/10/02 09:59:01;;;;;;;;;;;;;;;22.53;52.13;100592.94;7405137;19;1566;-67
2022/10/02 10:01:37;;;;;;;;;;;;;;;22.68;52.86;100579.72;7402415;19;1504;-63
2022/10/02 10:04:20;;;;;;;;;;;;;;;22.74;52.08;100584.44;7403238;19;1838;-61
2022/10/02 10:07:03;;;;;;;;;;;;;;;22.60;51.42;100580.53;7404541;19;1500;-61
2022/10/02 10:09:43;;;;;;;;;;;;;;;22.56;50.79;100570.22;7403765;19;1274;-61
2022/10/02 10:12:26;;;;;;;;;;;;;;;22.61;51.71;100562.50;7404967;19;1776;-61
2022/10/02 10:15:21;;;;;;;;;;;;;;;22.58;51.42;100565.50;7404500;19;1670;-61
2022/10/02 10:18:09;;;;;;;;;;;;;;;22.66;52.46;100565.56;7405519;19;1713;-61
2022/10/02 10:20:56;;;;;;;;;;;;;;;22.85;53.09;100591.34;7405319;19;1408;-61
2022/10/02 10:23:35;;;;;;;;;;;;;;;22.86;51.59;100566.09;7405864;19;1024;-61
2022/10/02 10:26:17;;;;;;;;;;;;;;;22.77;50.79;100572.47;7400622;19;1853;-61
2022/10/02 10:29:07;;;;;;;;;;;;;;;22.74;51.58;100572.78;7403386;19;1645;-61
2022/10/02 10:31:51;;;;;;;;;;;;;;;22.65;50.92;100585.41;7403246;19;1551;-61
2022/10/02 10:34:45;;;;;;;;;;;;;;;22.74;49.68;100602.44;7403695;19;1528;-61
2022/10/02 10:40:31;;;;;;;;;;;;;;;22.65;50.52;100582.72;7404774;19;1615;-61
2022/10/02 10:43:17;;;;;;;;;;;;;;;22.49;48.67;100601.53;7406970;19;1641;-61
2022/10/02 10:46:05;;;;;;;;;;;;;;;22.51;48.81;100594.13;7409571;19;1838;-61
2022/10/02 10:48:41;;;;;;;;;;;;;;;22.47;49.35;100588.22;7410680;19;1507;-61
2022/10/02 10:51:20;;;;;;;;;;;;;;;22.61;49.85;100584.88;7410997;19;1592;-61
2022/10/02 10:54:12;;;;;;;;;;;;;;;22.62;49.72;100586.59;7411218;19;969;-61
2022/10/02 10:56:43;;;;;;;;;;;;;;;22.59;49.63;100564.50;7410188;19;1665;-61
2022/10/02 10:59:31;;;;;;;;;;;;;;;22.56;49.28;100573.78;7410928;19;1627;-61
2022/10/02 11:02:13;;;;;;;;;;;;;;;22.69;50.03;100572.47;7409364;19;1698;-61
2022/10/02 11:04:59;;;;;;;;;;;;;;;22.63;48.76;100553.22;7408223;19;1847;-61
2022/10/02 11:07:36;;;;;;;;;;;;;;;22.83;48.85;100561.84;7409933;19;1342;-62
2022/10/02 11:10:19;;;;;;;;;;;;;;;23.01;49.67;100563.56;7409980;19;1344;-61
2022/10/02 11:13:02;;;;;;;;;;;;;;;23.09;49.50;100566.31;7410898;19;1522;-63
2022/10/02 11:15:48;;;;;;;;;;;;;;;23.11;49.31;100575.06;7410725;19;1341;-61
2022/10/02 11:18:29;;;;;;;;;;;;;;;23.20;50.32;100568.69;7409365;19;1570;-61
2022/10/02 11:21:12;;;;;;;;;;;;;;;23.20;50.07;100563.28;7410536;19;1611;-63
2022/10/02 11:24:05;;;;;;;;;;;;;;;23.23;49.13;100562.09;7411553;19;1127;-62
2022/10/02 11:26:44;;;;;;;;;;;;;;;23.29;50.86;100582.19;7401247;19;1859;-65
2022/10/02 11:29:24;;;;;;;;;;;;;;;23.16;50.07;100571.91;7409472;19;1387;-62
2022/10/02 11:32:03;;;;;;;;;;;;;;;23.20;50.11;100557.91;7409842;19;1417;-62
2022/10/02 11:35:00;;;;;;;;;;;;;;;23.23;51.62;100567.50;7410451;19;1602;-67
2022/10/02 11:37:39;;;;;;;;;;;;;;;23.19;51.52;100561.59;7409876;19;1543;-63
2022/10/02 11:40:16;;;;;;;;;;;;;;;23.33;51.68;100554.69;7408043;19;1534;-63
2022/10/02 11:42:59;;;;;;;;;;;;;;;23.26;50.44;100560.91;7410426;19;1035;-62
2022/10/02 11:45:47;;;;;;;;;;;;;;;23.37;51.45;100539.00;7408966;19;1855;-62
2022/10/02 11:48:32;;;;;;;;;;;;;;;23.36;50.88;100557.06;7409615;19;1355;-64
2022/10/02 11:51:27;;;;;;;;;;;;;;;23.48;50.72;100568.34;7409811;19;1548;-64
2022/10/02 11:54:05;;;;;;;;;;;;;;;23.53;49.74;100557.03;7405668;19;992;-62
2022/10/02 11:56:56;;;;;;;;;;;;;;;23.46;49.13;100566.81;7408100;19;1748;-61
2022/10/02 11:59:32;;;;;;;;;;;;;;;23.43;48.56;100568.84;7408672;19;1476;-65
2022/10/02 12:02:04;;;;;;;;;;;;;;;23.39;49.26;100561.25;7406671;19;1484;-62
2022/10/02 12:04:39;;;;;;;;;;;;;;;23.43;49.46;100579.63;7408359;19;1853;-63
2022/10/02 12:07:24;;;;;;;;;;;;;;;23.51;49.93;100584.19;7408810;19;1528;-65
2022/10/02 12:10:00;;;;;;;;;;;;;;;23.47;49.13;100582.00;7407566;19;1032;-67
2022/10/02 12:12:42;;;;;;;;;;;;;;;23.50;49.73;100592.47;7409012;19;1769;-70
2022/10/02 12:15:21;;;;;;;;;;;;;;;23.51;49.31;100591.44;7409313;19;1642;-66
2022/10/02 12:18:04;;;;;;;;;;;;;;;23.48;49.26;100589.09;7409606;19;1730;-68
2022/10/02 12:29:11;;;;;;;;;;;;;;;23.48;50.19;100586.41;7403380;19;1398;-68
2022/10/02 12:31:49;;;;;;;;;;;;;;;23.49;49.92;100582.69;7406724;19;1433;-66
2022/10/02 12:34:31;;;;;;;;;;;;;;;23.49;50.03;100583.50;7407744;19;1611;-67
2022/10/02 12:37:06;;;;;;;;;;;;;;;23.49;49.41;100591.59;7406769;19;1547;-66
2022/10/02 12:39:43;;;;;;;;;;;;;;;23.47;48.83;100587.41;7407256;19;985;-66
2022/10/02 12:42:20;;;;;;;;;;;;;;;23.42;48.88;100599.56;7407325;19;1671;-66
2022/10/02 12:44:57;;;;;;;;;;;;;;;23.41;49.24;100595.16;7407142;19;1851;-64
2022/10/02 12:47:41;;;;;;;;;;;;;;;23.49;48.94;100597.00;7406801;19;1745;-67
2022/10/02 12:50:20;;;;;;;;;;;;;;;23.78;50.96;100603.78;7407297;19;1607;-72
2022/10/02 12:53:06;;;;;;;;;;;;;;;23.79;50.48;100606.28;7407910;19;1564;-68
2022/10/02 12:55:49;;;;;;;;;;;;;;;23.88;51.38;100592.78;7404351;19;1445;-73
2022/10/02 12:58:26;;;;;;;;;;;;;;;23.71;51.48;100598.16;7407744;19;1512;-75
2022/10/02 13:01:07;;;;;;;;;;;;;;;23.52;51.02;100598.53;7406407;19;1481;-74
2022/10/02 13:03:48;;;;;;;;;;;;;;;23.48;49.92;100613.41;7408443;19;1041;-72
2022/10/02 13:06:39;;;;;;;;;;;;;;;23.45;48.71;100594.81;7400929;19;1845;-71
2022/10/02 13:09:20;;;;;;;;;;;;;;;23.41;48.49;100603.25;7414776;19;1387;-71
2022/10/02 13:12:07;;;;;;;;;;;;;;;23.50;48.60;100598.72;7412583;19;1595;-70
2022/10/02 13:14:48;;;;;;;;;;;;;;;23.48;48.49;100610.69;7413292;19;1653;-70
2022/10/02 13:17:22;;;;;;;;;;;;;;;23.46;48.27;100594.66;7413291;19;1555;-68
2022/10/02 13:19:57;;;;;;;;;;;;;;;23.43;48.44;100614.72;7408210;19;1410;-72
2022/10/02 13:22:32;;;;;;;;;;;;;;;23.39;48.94;100599.03;7406072;19;1374;-72
2022/10/02 13:25:20;;;;;;;;;;;;;;;23.40;47.25;100595.34;7405732;19;1837;-70
2022/10/02 13:27:51;;;;;;;;;;;;;;;23.37;48.14;100623.47;7403115;19;1420;-72
2022/10/02 13:30:23;;;;;;;;;;;;;;;23.41;48.15;100603.25;7407446;19;941;-72
2022/10/02 13:32:59;;;;;;;;;;;;;;;23.38;48.60;100603.59;7408017;19;968;-73
2022/10/02 13:35:39;;;;;;;;;;;;;;;23.40;48.73;100606.97;7407930;19;1681;-75
2022/10/02 13:38:18;;;;;;;;;;;;;;;23.31;49.41;100612.53;7406407;19;1717;-67
2022/10/02 13:40:50;;;;;;;;;;;;;;;23.30;48.08;100595.50;7404942;19;1349;-66
2022/10/02 13:43:26;;;;;;;;;;;;;;;23.18;47.85;100611.19;7403973;19;1317;-66
2022/10/02 13:46:01;;;;;;;;;;;;;;;23.13;48.10;100626.16;7404146;19;1846;-66
2022/10/02 13:48:35;;;;;;;;;;;;;;;23.19;48.70;100625.50;7404618;19;1362;-67